createdAt,value
2022-11-07T00:01:12.612Z,100291.97
2022-11-07T00:03:40.557Z,100300.28
2022-11-07T00:06:08.875Z,100300.28
2022-11-07T00:08:38.207Z,100295.72
2022-11-07T00:11:06.681Z,100301.34
2022-11-07T00:13:34.607Z,100301.97
2022-11-07T00:16:03.262Z,100311.91
2022-11-07T00:18:31.151Z,100304.44
2022-11-07T00:21:02.351Z,100304.44
2022-11-07T00:23:30.303Z,100307.13
2022-11-07T00:26:03.794Z,100305.25
2022-11-07T00:28:34.472Z,100319.59
2022-11-07T00:31:02.418Z,100313.13
2022-11-07T00:33:30.383Z,100315.84
2022-11-07T00:35:58.306Z,100309.63
2022-11-07T00:38:26.248Z,100310.25
2022-11-07T00:40:57.343Z,100307.75
2022-11-07T00:43:26.694Z,100309.81
2022-11-07T00:45:54.614Z,100313.34
2022-11-07T00:48:22.514Z,100301.72
2022-11-07T00:50:50.748Z,100304.44
2022-11-07T00:53:18.681Z,100302.78
2022-11-07T00:55:46.619Z,100313.56
2022-11-07T00:58:14.750Z,100310.06
2022-11-07T01:00:44.175Z,100304.44
2022-11-07T01:03:29.175Z,100312.75
2022-11-07T01:05:57.521Z,100305.47
2022-11-07T01:08:25.532Z,100320.00
2022-11-07T01:10:53.476Z,100311.91
2022-11-07T01:13:21.501Z,100317.53
2022-11-07T01:15:50.867Z,100306.75
2022-11-07T01:18:18.812Z,100308.63
2022-11-07T01:20:46.764Z,100301.34
2022-11-07T01:23:14.939Z,100305.91
2022-11-07T01:25:43.036Z,100304.84
2022-11-07T01:28:11.082Z,100303.59
2022-11-07T01:30:39.273Z,100303.59
2022-11-07T01:33:08.542Z,100306.31
2022-11-07T01:35:36.607Z,100306.09
2022-11-07T01:38:04.596Z,100302.34
2022-11-07T01:40:33.807Z,100305.03
2022-11-07T01:43:01.814Z,100296.13
2022-11-07T01:45:30.931Z,100302.34
2022-11-07T01:47:59.954Z,100306.72
2022-11-07T01:50:29.352Z,100302.34
2022-11-07T01:52:57.299Z,100299.84
2022-11-07T01:55:27.278Z,100303.41
2022-11-07T01:57:56.589Z,100300.09
2022-11-07T02:00:24.991Z,100305.25
2022-11-07T02:02:54.470Z,100299.03
2022-11-07T02:05:26.280Z,100299.03
2022-11-07T02:07:55.597Z,100302.78
2022-11-07T02:10:24.786Z,100301.72
2022-11-07T02:12:52.980Z,100300.09
2022-11-07T02:15:20.963Z,100304.66
2022-11-07T02:17:48.892Z,100311.91
2022-11-07T02:20:16.974Z,100308.19
2022-11-07T02:22:47.676Z,100311.09
2022-11-07T02:25:17.795Z,100301.09
2022-11-07T02:27:45.746Z,100317.31
2022-11-07T02:30:15.845Z,100311.91
2022-11-07T02:32:43.822Z,100308.38
2022-11-07T02:35:34.442Z,100314.41
2022-11-07T02:38:02.419Z,100309.00
2022-11-07T02:40:31.820Z,100304.44
2022-11-07T02:42:59.947Z,100321.44
2022-11-07T02:45:29.425Z,100304.22
2022-11-07T02:47:57.406Z,100309.63
2022-11-07T02:50:25.509Z,100301.53
2022-11-07T02:52:53.455Z,100302.34
2022-11-07T02:55:21.603Z,100301.31
2022-11-07T02:57:50.976Z,100304.00
2022-11-07T03:00:18.994Z,100301.53
2022-11-07T03:02:48.026Z,100314.19
2022-11-07T03:05:16.170Z,100299.84
2022-11-07T03:07:44.281Z,100298.19
2022-11-07T03:10:12.301Z,100284.91
2022-11-07T03:12:40.380Z,100286.59
2022-11-07T03:15:10.839Z,100286.59
2022-11-07T03:17:38.910Z,100283.25
2022-11-07T03:20:08.317Z,100275.16
2022-11-07T03:22:36.343Z,100281.19
2022-11-07T03:25:04.511Z,100282.44
2022-11-07T03:27:32.498Z,100276.00
2022-11-07T03:30:00.524Z,100287.59
2022-11-07T03:32:29.859Z,100290.31
2022-11-07T03:34:57.787Z,100279.50
2022-11-07T03:37:25.758Z,100285.75
2022-11-07T03:39:53.711Z,100288.66
2022-11-07T03:42:21.739Z,100294.06
2022-11-07T03:44:49.740Z,100298.19
2022-11-07T03:47:17.645Z,100298.19
2022-11-07T03:49:46.976Z,100295.31
2022-11-07T03:52:14.952Z,100296.94
2022-11-07T03:54:42.853Z,100292.59
2022-11-07T03:57:10.847Z,100292.38
2022-11-07T03:59:38.851Z,100286.16
2022-11-07T04:02:06.927Z,100289.66
2022-11-07T04:04:34.978Z,100286.16
2022-11-07T04:07:04.284Z,100293.22
2022-11-07T04:09:32.247Z,100295.06
2022-11-07T04:12:17.610Z,100290.72
2022-11-07T04:15:03.045Z,100294.44
2022-11-07T04:17:31.208Z,100299.03
2022-11-07T04:19:59.231Z,100296.31
2022-11-07T04:22:28.879Z,100289.91
2022-11-07T04:24:56.849Z,100301.72
2022-11-07T04:27:42.186Z,100299.03
2022-11-07T04:30:22.589Z,100297.38
2022-11-07T04:32:51.310Z,100291.97
2022-11-07T04:35:19.401Z,100290.31
2022-11-07T04:37:48.856Z,100295.72
2022-11-07T04:40:17.224Z,100299.25
2022-11-07T04:42:45.171Z,100311.91
2022-11-07T04:45:13.213Z,100303.81
2022-11-07T04:47:41.422Z,100301.97
2022-11-07T04:50:13.636Z,100302.78
2022-11-07T04:52:41.593Z,100298.41
2022-11-07T04:55:11.499Z,100300.91
2022-11-07T04:57:39.471Z,100299.84
2022-11-07T05:00:09.070Z,100300.69
2022-11-07T05:02:37.098Z,100305.03
2022-11-07T05:05:05.727Z,100306.72
2022-11-07T05:07:33.695Z,100311.09
2022-11-07T05:10:01.661Z,100320.22
2022-11-07T05:12:31.071Z,100330.00
2022-11-07T05:14:59.219Z,100326.22
2022-11-07T05:17:28.190Z,100331.44
2022-11-07T05:19:56.243Z,100328.94
2022-11-07T05:22:41.423Z,100328.94
2022-11-07T05:25:10.408Z,100330.81
2022-11-07T05:27:39.719Z,100337.22
2022-11-07T05:30:08.682Z,100337.22
2022-11-07T05:32:38.289Z,100339.09
2022-11-07T05:35:06.873Z,100337.22
2022-11-07T05:37:34.836Z,100340.13
2022-11-07T05:40:02.797Z,100340.13
2022-11-07T05:42:30.833Z,100342.63
2022-11-07T05:45:00.146Z,100346.34
2022-11-07T05:47:28.150Z,100348.22
2022-11-07T05:49:56.039Z,100345.53
2022-11-07T05:52:23.949Z,100350.94
2022-11-07T05:54:51.849Z,100359.03
2022-11-07T05:57:19.875Z,100359.03
2022-11-07T05:59:47.832Z,100355.31
2022-11-07T06:02:17.757Z,100364.22
2022-11-07T06:04:45.822Z,100362.38
2022-11-07T06:07:14.048Z,100376.47
2022-11-07T06:09:41.975Z,100370.03
2022-11-07T06:12:09.991Z,100375.44
2022-11-07T06:14:37.928Z,100375.44
2022-11-07T06:17:07.402Z,100379.78
2022-11-07T06:19:36.697Z,100380.63
2022-11-07T06:22:04.744Z,100391.41
2022-11-07T06:24:32.678Z,100393.09
2022-11-07T06:27:01.048Z,100394.13
2022-11-07T06:29:29.162Z,100392.25
2022-11-07T06:31:57.050Z,100394.97
2022-11-07T06:34:25.042Z,100394.97
2022-11-07T06:37:02.590Z,100404.09
2022-11-07T06:39:31.277Z,100412.19
2022-11-07T06:41:59.316Z,100421.97
2022-11-07T06:44:27.318Z,100426.50
2022-11-07T06:46:55.286Z,100433.78
2022-11-07T06:49:23.556Z,100436.47
2022-11-07T06:51:51.532Z,100436.47
2022-11-07T06:54:20.934Z,100437.31
2022-11-07T06:56:48.854Z,100434.84
2022-11-07T06:59:16.786Z,100434.84
2022-11-07T07:01:45.109Z,100438.56
2022-11-07T07:04:13.070Z,100438.56
2022-11-07T07:06:43.595Z,100434.84
2022-11-07T07:09:11.522Z,100431.91
2022-11-07T07:11:42.683Z,100440.88
2022-11-07T07:14:11.906Z,100432.75
2022-11-07T07:16:39.981Z,100434.41
2022-11-07T07:19:07.919Z,100429.00
2022-11-07T07:21:35.933Z,100436.06
2022-11-07T07:24:03.835Z,100442.31
2022-11-07T07:26:31.987Z,100435.84
2022-11-07T07:29:01.413Z,100437.72
2022-11-07T07:31:31.594Z,100434.81
2022-11-07T07:33:59.640Z,100433.16
2022-11-07T07:36:27.665Z,100429.63
2022-11-07T07:38:55.658Z,100425.25
2022-11-07T07:41:23.654Z,100436.06
2022-11-07T07:43:51.706Z,100434.41
2022-11-07T07:46:22.629Z,100430.66
2022-11-07T07:48:50.613Z,100436.06
2022-11-07T07:51:18.577Z,100441.47
2022-11-07T07:53:46.510Z,100441.47
2022-11-07T07:56:15.130Z,100441.47
2022-11-07T07:58:43.246Z,100440.63
2022-11-07T08:01:11.588Z,100443.34
2022-11-07T08:04:00.247Z,100450.59
2022-11-07T08:06:28.951Z,100439.81
2022-11-07T08:08:56.933Z,100443.97
2022-11-07T08:11:25.213Z,100450.19
2022-11-07T08:13:57.128Z,100457.25
2022-11-07T08:16:27.518Z,100451.00
2022-11-07T08:18:56.947Z,100459.09
2022-11-07T08:21:24.863Z,100455.56
2022-11-07T08:23:54.899Z,100455.56
2022-11-07T08:26:22.903Z,100455.56
2022-11-07T08:28:50.897Z,100463.69
2022-11-07T08:31:18.837Z,100458.28
2022-11-07T08:33:46.898Z,100456.63
2022-11-07T08:36:16.260Z,100465.56
2022-11-07T08:38:44.558Z,100465.56
2022-11-07T08:41:12.457Z,100454.94
2022-11-07T08:43:40.606Z,100462.22
2022-11-07T08:46:08.581Z,100462.84
2022-11-07T08:48:36.608Z,100473.84
2022-11-07T08:51:04.680Z,100468.47
2022-11-07T08:53:34.114Z,100466.81
2022-11-07T08:56:03.203Z,100465.56
2022-11-07T08:58:31.304Z,100470.13
2022-11-07T09:00:59.321Z,100470.13
2022-11-07T09:06:15.304Z,100472.59
2022-11-07T09:08:44.798Z,100468.06
2022-11-07T09:11:15.576Z,100478.63
2022-11-07T09:13:44.146Z,100481.31
2022-11-07T09:16:12.161Z,100485.69
2022-11-07T09:18:40.198Z,100474.03
2022-11-07T09:21:08.165Z,100483.81
2022-11-07T09:23:36.201Z,100489.22
2022-11-07T09:26:05.616Z,100495.66
2022-11-07T09:28:33.728Z,100493.81
2022-11-07T09:31:02.508Z,100492.13
2022-11-07T09:33:30.595Z,100494.81
2022-11-07T09:36:00.349Z,100493.81
2022-11-07T09:38:28.324Z,100494.81
2022-11-07T09:41:00.467Z,100507.50
2022-11-07T09:43:49.178Z,100500.22
2022-11-07T09:46:24.156Z,100502.09
2022-11-07T09:48:53.716Z,100498.34
2022-11-07T09:51:26.178Z,100501.47
2022-11-07T09:53:57.385Z,100502.94
2022-11-07T09:56:25.307Z,100502.09
2022-11-07T09:58:54.883Z,100502.94
2022-11-07T10:01:23.184Z,100504.59
2022-11-07T10:04:23.662Z,100502.09
2022-11-07T10:06:41.438Z,100498.34
2022-11-07T10:09:14.122Z,100496.69
2022-11-07T10:11:43.553Z,100496.50
2022-11-07T10:14:24.979Z,100500.03
2022-11-07T10:17:05.267Z,100503.31
2022-11-07T10:19:40.525Z,100501.69
2022-11-07T10:22:15.374Z,100494.41
2022-11-07T10:24:50.091Z,100499.59
2022-11-07T10:27:18.100Z,100500.41
2022-11-07T10:29:51.019Z,100494.19
2022-11-07T10:32:22.894Z,100495.03
2022-11-07T10:34:54.773Z,100497.91
2022-11-07T10:37:22.831Z,100493.38
2022-11-07T10:39:50.844Z,100489.81
2022-11-07T10:42:19.749Z,100492.53
2022-11-07T10:44:49.391Z,100486.28
2022-11-07T10:47:17.922Z,100493.56
2022-11-07T10:49:55.378Z,100491.69
2022-11-07T10:52:23.360Z,100481.13
2022-11-07T10:54:51.422Z,100481.72
2022-11-07T10:57:20.093Z,100485.47
2022-11-07T10:59:56.586Z,100485.47
2022-11-07T11:02:25.478Z,100473.63
2022-11-07T11:04:55.145Z,100476.31
2022-11-07T11:07:28.223Z,100475.50
2022-11-07T11:09:57.596Z,100477.38
2022-11-07T11:12:26.787Z,100482.56
2022-11-07T11:15:06.930Z,100481.72
2022-11-07T11:17:34.976Z,100473.84
2022-11-07T11:20:03.452Z,100471.16
2022-11-07T11:22:31.370Z,100474.66
2022-11-07T11:25:00.254Z,100468.44
2022-11-07T11:27:28.256Z,100466.56
2022-11-07T11:29:58.439Z,100471.97
2022-11-07T11:32:30.317Z,100466.56
2022-11-07T11:35:03.158Z,100465.50
2022-11-07T11:37:31.171Z,100465.50
2022-11-07T11:40:09.816Z,100457.41
2022-11-07T11:42:41.381Z,100459.28
2022-11-07T11:45:15.503Z,100467.38
2022-11-07T11:47:47.567Z,100471.97
2022-11-07T11:50:18.224Z,100459.28
2022-11-07T11:52:46.273Z,100459.28
2022-11-07T11:55:15.399Z,100464.69
2022-11-07T11:57:48.482Z,100464.50
2022-11-07T12:00:17.260Z,100466.13
2022-11-07T12:03:14.552Z,100459.72
2022-11-07T12:05:52.933Z,100448.91
2022-11-07T12:08:25.951Z,100455.97
2022-11-07T12:10:55.307Z,100451.38
2022-11-07T12:13:26.681Z,100464.06
2022-11-07T12:16:03.936Z,100460.31
2022-11-07T12:18:37.273Z,100461.16
2022-11-07T12:21:10.771Z,100456.56
2022-11-07T12:24:00.224Z,100458.47
2022-11-07T12:26:30.995Z,100456.56
2022-11-07T12:29:03.235Z,100461.97
2022-11-07T12:31:38.638Z,100461.97
2022-11-07T12:34:14.769Z,100460.31
2022-11-07T12:36:50.273Z,100469.25
2022-11-07T12:39:45.751Z,100461.34
2022-11-07T12:42:17.892Z,100461.34
2022-11-07T12:44:52.998Z,100455.97
2022-11-07T12:47:28.471Z,100463.00
2022-11-07T12:50:04.039Z,100457.84
2022-11-07T12:52:39.325Z,100465.72
2022-11-07T12:55:17.599Z,100463.25
2022-11-07T12:57:45.591Z,100465.94
2022-11-07T13:00:21.311Z,100459.72
2022-11-07T13:02:59.848Z,100459.72
2022-11-07T13:05:52.486Z,100452.44
2022-11-07T13:08:22.262Z,100451.63
2022-11-07T13:10:53.634Z,100455.13
2022-11-07T13:13:23.094Z,100450.56
2022-11-07T13:16:15.664Z,100457.59
2022-11-07T13:18:39.098Z,100448.47
2022-11-07T13:21:09.597Z,100450.13
2022-11-07T13:23:37.627Z,100445.53
2022-11-07T13:26:20.307Z,100453.88
2022-11-07T13:28:58.735Z,100448.47
2022-11-07T13:31:34.970Z,100450.13
2022-11-07T13:34:13.514Z,100455.53
2022-11-07T13:36:42.912Z,100455.53
2022-11-07T13:39:11.292Z,100445.78
2022-11-07T13:41:39.414Z,100449.31
2022-11-07T13:44:08.090Z,100448.47
2022-11-07T13:46:37.246Z,100453.06
2022-11-07T13:49:06.912Z,100459.28
2022-11-07T13:51:36.512Z,100463.00
2022-11-07T13:54:12.368Z,100461.34
2022-11-07T13:56:42.417Z,100464.69
2022-11-07T13:59:13.524Z,100464.06
2022-11-07T14:01:43.362Z,100466.75
2022-11-07T14:04:16.486Z,100467.59
2022-11-07T14:06:45.138Z,100468.41
2022-11-07T14:09:17.207Z,100468.41
2022-11-07T14:11:45.793Z,100469.47
2022-11-07T14:14:13.813Z,100479.22
2022-11-07T14:16:42.258Z,100477.56
2022-11-07T14:19:15.194Z,100480.06
2022-11-07T14:21:46.120Z,100482.75
2022-11-07T14:24:26.292Z,100483.34
2022-11-07T14:27:04.486Z,100482.53
2022-11-07T14:29:32.586Z,100471.72
2022-11-07T14:32:01.978Z,100478.81
2022-11-07T14:34:30.206Z,100472.56
2022-11-07T14:37:01.453Z,100472.56
2022-11-07T14:39:31.906Z,100476.09
2022-11-07T14:42:01.663Z,100476.09
2022-11-07T14:44:47.579Z,100475.47
2022-11-07T14:47:21.508Z,100477.13
2022-11-07T14:49:50.010Z,100475.47
2022-11-07T14:52:20.584Z,100486.28
2022-11-07T14:54:50.097Z,100486.28
2022-11-07T14:57:18.869Z,100490.00
2022-11-07T14:59:46.841Z,100486.28
2022-11-07T15:02:26.439Z,100490.00
2022-11-07T15:04:58.904Z,100496.25
2022-11-07T15:07:33.757Z,100492.72
2022-11-07T15:10:13.012Z,100490.88
2022-11-07T15:12:50.899Z,100489.19
2022-11-07T15:15:20.605Z,100481.09
2022-11-07T15:17:49.849Z,100487.31
2022-11-07T15:20:24.057Z,100480.25
2022-11-07T15:22:52.667Z,100478.38
2022-11-07T15:25:29.101Z,100477.56
2022-11-07T15:27:57.835Z,100484.84
2022-11-07T15:30:28.220Z,100480.25
2022-11-07T15:32:57.562Z,100486.28
2022-11-07T15:35:55.425Z,100477.13
2022-11-07T15:38:19.997Z,100483.59
2022-11-07T15:40:49.866Z,100482.53
2022-11-07T15:43:18.430Z,100484.22
2022-11-07T15:45:46.550Z,100484.22
2022-11-07T15:48:17.532Z,100490.44
2022-11-07T15:50:46.135Z,100487.94
2022-11-07T15:53:20.519Z,100487.94
2022-11-07T15:55:50.081Z,100491.69
2022-11-07T15:58:19.389Z,100496.03
2022-11-07T16:00:47.697Z,100496.25
2022-11-07T16:03:17.448Z,100497.09
2022-11-07T16:05:47.719Z,100499.16
2022-11-07T16:08:18.489Z,100504.56
2022-11-07T16:10:47.907Z,100507.28
2022-11-07T16:13:17.988Z,100509.16
2022-11-07T16:15:48.362Z,100510.78
2022-11-07T16:18:18.132Z,100512.66
2022-11-07T16:20:46.506Z,100514.31
2022-11-07T16:23:15.235Z,100525.34
2022-11-07T16:25:44.125Z,100525.34
2022-11-07T16:28:23.421Z,100522.66
2022-11-07T16:30:51.723Z,100532.41
2022-11-07T16:33:20.576Z,100530.75
2022-11-07T16:35:49.166Z,100537.78
2022-11-07T16:38:19.471Z,100533.22
2022-11-07T16:40:47.474Z,100526.78
2022-11-07T16:43:16.305Z,100528.44
2022-11-07T16:45:47.675Z,100535.72
2022-11-07T16:48:21.615Z,100531.97
2022-11-07T16:50:49.517Z,100531.97
2022-11-07T16:53:18.267Z,100531.97
2022-11-07T16:55:52.308Z,100537.38
2022-11-07T16:58:27.661Z,100539.03
2022-11-07T17:00:57.551Z,100541.94
2022-11-07T17:03:27.097Z,100533.22
2022-11-07T17:05:55.194Z,100539.47
2022-11-07T17:08:25.715Z,100546.72
2022-11-07T17:10:53.650Z,100544.03
2022-11-07T17:13:23.799Z,100550.28
2022-11-07T17:15:51.794Z,100546.72
2022-11-07T17:18:22.530Z,100554.00
2022-11-07T17:20:51.879Z,100554.81
2022-11-07T17:23:25.329Z,100559.41
2022-11-07T17:25:55.330Z,100557.75
2022-11-07T17:28:24.047Z,100562.34
2022-11-07T17:30:52.292Z,100556.94
2022-11-07T17:33:22.664Z,100556.94
2022-11-07T17:35:50.761Z,100561.47
2022-11-07T17:38:20.268Z,100563.97
2022-11-07T17:40:48.355Z,100563.97
2022-11-07T17:43:17.055Z,100568.56
2022-11-07T17:45:45.004Z,100567.50
2022-11-07T17:48:15.524Z,100576.44
2022-11-07T17:50:47.969Z,100572.72
2022-11-07T17:53:16.749Z,100571.66
2022-11-07T17:55:44.731Z,100569.78
2022-11-07T17:58:13.851Z,100568.94
2022-11-07T18:00:41.932Z,100574.34
2022-11-07T18:03:11.621Z,100573.34
2022-11-07T18:05:39.735Z,100574.16
2022-11-07T18:08:19.896Z,100567.69
2022-11-07T18:11:01.756Z,100572.28
2022-11-07T18:13:30.439Z,100573.34
2022-11-07T18:15:58.359Z,100566.25
2022-11-07T18:18:27.823Z,100568.94
2022-11-07T18:20:55.744Z,100568.94
2022-11-07T18:23:26.762Z,100574.34
2022-11-07T18:26:02.875Z,100572.72
2022-11-07T18:28:31.593Z,100572.72
2022-11-07T18:31:04.199Z,100574.59
2022-11-07T18:33:32.995Z,100573.53
2022-11-07T18:36:01.056Z,100570.00
2022-11-07T18:38:31.129Z,100570.63
2022-11-07T18:40:59.204Z,100571.88
2022-11-07T18:43:27.991Z,100572.72
2022-11-07T18:45:56.773Z,100574.34
2022-11-07T18:48:25.688Z,100570.63
2022-11-07T18:50:53.642Z,100573.09
2022-11-07T18:53:22.404Z,100584.72
2022-11-07T18:55:58.640Z,100564.81
2022-11-07T18:58:27.467Z,100568.53
2022-11-07T19:00:55.595Z,100572.91
2022-11-07T19:03:26.016Z,100564.81
2022-11-07T19:06:00.677Z,100571.84
2022-11-07T19:08:30.735Z,100572.91
2022-11-07T19:11:00.412Z,100575.59
2022-11-07T19:13:35.046Z,100578.06
2022-11-07T19:16:03.780Z,100582.66
2022-11-07T19:18:34.740Z,100575.59
2022-11-07T19:21:03.809Z,100576.84
2022-11-07T19:23:33.331Z,100574.16
2022-11-07T19:26:02.651Z,100577.69
2022-11-07T19:28:31.444Z,100572.28
2022-11-07T19:31:00.346Z,100578.72
2022-11-07T19:33:30.896Z,100576.84
2022-11-07T19:35:59.466Z,100582.25
2022-11-07T19:38:28.983Z,100584.13
2022-11-07T19:40:59.864Z,100582.25
2022-11-07T19:43:34.942Z,100598.47
2022-11-07T19:46:09.121Z,100596.59
2022-11-07T19:48:38.796Z,100593.25
2022-11-07T19:51:08.079Z,100591.19
2022-11-07T19:53:45.087Z,100593.88
2022-11-07T19:56:14.488Z,100604.50
2022-11-07T19:58:44.223Z,100604.25
2022-11-07T20:01:15.882Z,100597.22
2022-11-07T20:03:46.906Z,100608.00
2022-11-07T20:06:17.031Z,100608.00
2022-11-07T20:08:47.023Z,100604.25
2022-11-07T20:11:15.529Z,100613.19
2022-11-07T20:13:44.872Z,100619.44
2022-11-07T20:16:14.577Z,100615.06
2022-11-07T20:18:42.565Z,100611.53
2022-11-07T20:21:14.683Z,100609.91
2022-11-07T20:23:42.739Z,100619.84
2022-11-07T20:26:14.923Z,100615.28
2022-11-07T20:28:44.325Z,100617.16
2022-11-07T20:31:13.228Z,100618.81
2022-11-07T20:33:41.260Z,100626.09
2022-11-07T20:36:11.495Z,100626.69
2022-11-07T20:38:39.550Z,100623.78
2022-11-07T20:41:08.444Z,100621.09
2022-11-07T20:43:44.761Z,100620.03
2022-11-07T20:46:15.859Z,100627.13
2022-11-07T20:48:44.054Z,100621.50
2022-11-07T20:51:14.380Z,100625.00
2022-11-07T20:53:48.425Z,100628.56
2022-11-07T20:56:18.695Z,100628.56
2022-11-07T20:58:46.645Z,100625.00
2022-11-07T21:01:21.963Z,100619.63
2022-11-07T21:03:50.893Z,100624.00
2022-11-07T21:06:19.880Z,100627.72
2022-11-07T21:08:48.989Z,100618.59
2022-11-07T21:11:17.791Z,100622.31
2022-11-07T21:13:52.436Z,100623.38
2022-11-07T21:16:23.924Z,100629.59
2022-11-07T21:18:51.957Z,100622.31
2022-11-07T21:21:22.165Z,100627.72
2022-11-07T21:23:50.347Z,100622.31
2022-11-07T21:26:21.903Z,100624.19
2022-11-07T21:28:49.870Z,100621.28
2022-11-07T21:31:20.610Z,100618.78
2022-11-07T21:33:49.964Z,100627.53
2022-11-07T21:36:19.905Z,100633.75
2022-11-07T21:38:47.931Z,100628.34
2022-11-07T21:41:16.965Z,100625.66
2022-11-07T21:43:44.948Z,100625.66
2022-11-07T21:46:15.125Z,100626.28
2022-11-07T21:48:43.141Z,100626.28
2022-11-07T21:51:15.315Z,100609.25
2022-11-07T21:53:43.379Z,100613.38
2022-11-07T21:56:15.467Z,100614.41
2022-11-07T21:58:43.515Z,100613.38
2022-11-07T22:01:12.349Z,100613.38
2022-11-07T22:04:05.523Z,100611.50
2022-11-07T22:06:34.340Z,100613.38
2022-11-07T22:09:02.354Z,100614.22
2022-11-07T22:11:31.064Z,100608.00
2022-11-07T22:13:59.024Z,100616.91
2022-11-07T22:16:27.810Z,100611.31
2022-11-07T22:18:55.901Z,100609.44
2022-11-07T22:21:25.894Z,100605.91
2022-11-07T22:23:55.286Z,100611.31
2022-11-07T22:26:24.816Z,100612.97
2022-11-07T22:28:52.769Z,100618.38
2022-11-07T22:31:23.891Z,100615.66
2022-11-07T22:33:52.286Z,100622.94
2022-11-07T22:36:21.008Z,100612.97
2022-11-07T22:38:49.149Z,100617.53
2022-11-07T22:41:20.209Z,100612.97
2022-11-07T22:43:48.201Z,100621.88
2022-11-07T22:46:19.984Z,100613.78
2022-11-07T22:48:47.993Z,100614.59
2022-11-07T22:51:17.347Z,100612.75
2022-11-07T22:53:45.303Z,100614.59
2022-11-07T22:56:15.886Z,100618.16
2022-11-07T22:58:45.361Z,100620.00
2022-11-07T23:01:16.608Z,100624.38
2022-11-07T23:03:47.470Z,100621.69
2022-11-07T23:06:18.435Z,100623.34
2022-11-07T23:08:46.573Z,100624.38
2022-11-07T23:14:06.635Z,100624.38
2022-11-07T23:16:35.802Z,100621.69
2022-11-07T23:19:04.818Z,100618.38
2022-11-07T23:21:33.040Z,100625.41
2022-11-07T23:24:01.251Z,100627.28
2022-11-07T23:26:34.052Z,100626.47
2022-11-07T23:29:07.531Z,100630.81
2022-11-07T23:31:40.152Z,100630.22
2022-11-07T23:34:08.240Z,100634.78
2022-11-07T23:36:36.343Z,100626.66
2022-11-07T23:39:06.079Z,100629.59
2022-11-07T23:41:34.317Z,100627.53
2022-11-07T23:44:02.258Z,100627.53
2022-11-07T23:46:47.751Z,100622.13
2022-11-07T23:49:34.598Z,100627.53
2022-11-07T23:52:02.628Z,100625.03
2022-11-07T23:54:48.021Z,100630.22
2022-11-07T23:57:15.964Z,100629.16
